sensor_id;sensor_type;location;lat;lon;timestamp;P1;durP1;ratioP1;P2;durP2;ratioP2
53714;SDS011;39608;55.630;37.864;2023-11-22T00:03:27;1.52;;;1.10;;
53714;SDS011;39608;55.630;37.864;2023-11-22T00:08:29;8.70;;;2.10;;
53714;SDS011;39608;55.630;37.864;2023-11-22T00:13:33;5.03;;;2.10;;
53714;SDS011;39608;55.630;37.864;2023-11-22T00:18:34;2.63;;;1.73;;
53714;SDS011;39608;55.630;37.864;2023-11-22T00:23:37;4.10;;;2.13;;
53714;SDS011;39608;55.630;37.864;2023-11-22T00:28:42;3.78;;;1.88;;
53714;SDS011;39608;55.630;37.864;2023-11-22T00:33:44;2.13;;;1.52;;
53714;SDS011;39608;55.630;37.864;2023-11-22T00:38:46;2.25;;;1.73;;
53714;SDS011;39608;55.630;37.864;2023-11-22T00:43:52;3.35;;;1.90;;
53714;SDS011;39608;55.630;37.864;2023-11-22T00:48:54;2.17;;;1.80;;
53714;SDS011;39608;55.630;37.864;2023-11-22T00:53:57;5.20;;;2.10;;
53714;SDS011;39608;55.630;37.864;2023-11-22T00:59:01;4.03;;;2.03;;
53714;SDS011;39608;55.630;37.864;2023-11-22T01:04:04;3.92;;;1.92;;
53714;SDS011;39608;55.630;37.864;2023-11-22T01:09:10;4.80;;;2.30;;
53714;SDS011;39608;55.630;37.864;2023-11-22T01:14:15;4.10;;;2.00;;
53714;SDS011;39608;55.630;37.864;2023-11-22T01:19:17;1.27;;;1.17;;
53714;SDS011;39608;55.630;37.864;2023-11-22T01:24:19;2.10;;;1.60;;
53714;SDS011;39608;55.630;37.864;2023-11-22T01:29:23;3.45;;;1.48;;
53714;SDS011;39608;55.630;37.864;2023-11-22T01:34:25;3.75;;;2.28;;
53714;SDS011;39608;55.630;37.864;2023-11-22T01:39:27;3.55;;;1.73;;
53714;SDS011;39608;55.630;37.864;2023-11-22T01:44:30;4.25;;;2.53;;
53714;SDS011;39608;55.630;37.864;2023-11-22T01:49:38;6.70;;;1.55;;
53714;SDS011;39608;55.630;37.864;2023-11-22T01:54:40;2.65;;;1.58;;
53714;SDS011;39608;55.630;37.864;2023-11-22T01:59:44;6.32;;;2.05;;
53714;SDS011;39608;55.630;37.864;2023-11-22T02:04:47;5.00;;;1.77;;
53714;SDS011;39608;55.630;37.864;2023-11-22T02:09:52;4.63;;;2.25;;
53714;SDS011;39608;55.630;37.864;2023-11-22T02:14:55;4.97;;;2.13;;
53714;SDS011;39608;55.630;37.864;2023-11-22T02:19:58;4.80;;;2.47;;
53714;SDS011;39608;55.630;37.864;2023-11-22T02:25:09;2.70;;;2.45;;
53714;SDS011;39608;55.630;37.864;2023-11-22T02:30:11;3.05;;;1.98;;
53714;SDS011;39608;55.630;37.864;2023-11-22T02:35:13;1.23;;;1.15;;
53714;SDS011;39608;55.630;37.864;2023-11-22T02:40:18;5.97;;;2.35;;
53714;SDS011;39608;55.630;37.864;2023-11-22T02:45:26;4.40;;;2.35;;
53714;SDS011;39608;55.630;37.864;2023-11-22T02:50:30;3.50;;;2.47;;
53714;SDS011;39608;55.630;37.864;2023-11-22T02:55:34;7.07;;;1.85;;
53714;SDS011;39608;55.630;37.864;2023-11-22T03:00:36;3.45;;;1.92;;
53714;SDS011;39608;55.630;37.864;2023-11-22T03:05:47;5.40;;;2.63;;
53714;SDS011;39608;55.630;37.864;2023-11-22T03:10:52;5.38;;;2.17;;
53714;SDS011;39608;55.630;37.864;2023-11-22T03:15:54;3.40;;;2.05;;
53714;SDS011;39608;55.630;37.864;2023-11-22T03:20:56;3.70;;;2.15;;
53714;SDS011;39608;55.630;37.864;2023-11-22T03:25:59;2.42;;;1.55;;
53714;SDS011;39608;55.630;37.864;2023-11-22T03:31:01;6.88;;;2.15;;
53714;SDS011;39608;55.630;37.864;2023-11-22T03:36:06;4.72;;;1.73;;
53714;SDS011;39608;55.630;37.864;2023-11-22T03:41:13;1.73;;;1.33;;
53714;SDS011;39608;55.630;37.864;2023-11-22T03:46:15;2.40;;;1.70;;
53714;SDS011;39608;55.630;37.864;2023-11-22T03:51:17;1.83;;;1.73;;
53714;SDS011;39608;55.630;37.864;2023-11-22T03:56:20;4.55;;;1.35;;
53714;SDS011;39608;55.630;37.864;2023-11-22T04:01:27;1.88;;;1.40;;
53714;SDS011;39608;55.630;37.864;2023-11-22T04:06:29;3.03;;;1.38;;
53714;SDS011;39608;55.630;37.864;2023-11-22T04:11:35;1.83;;;1.45;;
53714;SDS011;39608;55.630;37.864;2023-11-22T04:16:36;2.03;;;1.02;;
53714;SDS011;39608;55.630;37.864;2023-11-22T04:21:44;3.10;;;1.45;;
53714;SDS011;39608;55.630;37.864;2023-11-22T04:26:48;0.88;;;0.88;;
53714;SDS011;39608;55.630;37.864;2023-11-22T04:31:50;2.45;;;1.20;;
53714;SDS011;39608;55.630;37.864;2023-11-22T04:36:52;3.40;;;1.52;;
53714;SDS011;39608;55.630;37.864;2023-11-22T04:41:58;2.33;;;1.70;;
53714;SDS011;39608;55.630;37.864;2023-11-22T04:47:00;6.07;;;2.90;;
53714;SDS011;39608;55.630;37.864;2023-11-22T04:52:03;1.63;;;1.42;;
53714;SDS011;39608;55.630;37.864;2023-11-22T04:57:07;5.25;;;1.65;;
53714;SDS011;39608;55.630;37.864;2023-11-22T05:02:11;3.42;;;2.17;;
53714;SDS011;39608;55.630;37.864;2023-11-22T05:07:13;1.63;;;1.17;;
53714;SDS011;39608;55.630;37.864;2023-11-22T05:12:17;2.75;;;1.42;;
53714;SDS011;39608;55.630;37.864;2023-11-22T05:17:21;2.13;;;1.30;;
53714;SDS011;39608;55.630;37.864;2023-11-22T05:22:24;3.60;;;1.77;;
53714;SDS011;39608;55.630;37.864;2023-11-22T05:27:27;2.65;;;1.52;;
53714;SDS011;39608;55.630;37.864;2023-11-22T05:32:30;2.70;;;1.60;;
53714;SDS011;39608;55.630;37.864;2023-11-22T05:37:32;2.22;;;1.40;;
53714;SDS011;39608;55.630;37.864;2023-11-22T05:42:45;1.83;;;1.33;;
53714;SDS011;39608;55.630;37.864;2023-11-22T05:47:47;2.28;;;1.08;;
53714;SDS011;39608;55.630;37.864;2023-11-22T05:52:49;1.92;;;1.20;;
53714;SDS011;39608;55.630;37.864;2023-11-22T05:57:53;4.10;;;1.75;;
53714;SDS011;39608;55.630;37.864;2023-11-22T06:02:55;2.17;;;1.63;;
53714;SDS011;39608;55.630;37.864;2023-11-22T06:07:57;1.65;;;1.30;;
53714;SDS011;39608;55.630;37.864;2023-11-22T06:13:00;3.45;;;0.93;;
53714;SDS011;39608;55.630;37.864;2023-11-22T06:18:02;1.77;;;0.98;;
53714;SDS011;39608;55.630;37.864;2023-11-22T06:23:05;3.92;;;1.40;;
53714;SDS011;39608;55.630;37.864;2023-11-22T06:28:08;2.97;;;1.40;;
53714;SDS011;39608;55.630;37.864;2023-11-22T06:33:10;2.83;;;1.45;;
53714;SDS011;39608;55.630;37.864;2023-11-22T06:38:12;1.38;;;0.95;;
53714;SDS011;39608;55.630;37.864;2023-11-22T06:43:19;1.05;;;0.80;;
53714;SDS011;39608;55.630;37.864;2023-11-22T06:48:21;1.67;;;1.05;;
53714;SDS011;39608;55.630;37.864;2023-11-22T06:53:23;2.55;;;1.50;;
53714;SDS011;39608;55.630;37.864;2023-11-22T06:58:27;1.23;;;0.90;;
53714;SDS011;39608;55.630;37.864;2023-11-22T07:03:30;1.75;;;1.65;;
53714;SDS011;39608;55.630;37.864;2023-11-22T07:08:32;8.10;;;1.35;;
53714;SDS011;39608;55.630;37.864;2023-11-22T07:13:36;1.75;;;1.05;;
53714;SDS011;39608;55.630;37.864;2023-11-22T07:18:40;1.48;;;0.98;;
53714;SDS011;39608;55.630;37.864;2023-11-22T07:23:42;1.98;;;1.48;;
53714;SDS011;39608;55.630;37.864;2023-11-22T07:28:47;2.92;;;1.58;;
53714;SDS011;39608;55.630;37.864;2023-11-22T07:33:49;10.45;;;0.73;;
53714;SDS011;39608;55.630;37.864;2023-11-22T07:38:51;0.65;;;0.65;;
53714;SDS011;39608;55.630;37.864;2023-11-22T07:43:55;2.40;;;1.13;;
53714;SDS011;39608;55.630;37.864;2023-11-22T07:48:58;3.72;;;1.17;;
53714;SDS011;39608;55.630;37.864;2023-11-22T07:54:00;1.45;;;0.55;;
53714;SDS011;39608;55.630;37.864;2023-11-22T07:59:04;1.88;;;1.27;;
53714;SDS011;39608;55.630;37.864;2023-11-22T08:04:06;1.38;;;1.02;;
53714;SDS011;39608;55.630;37.864;2023-11-22T08:09:09;0.80;;;0.65;;
53714;SDS011;39608;55.630;37.864;2023-11-22T08:14:16;1.80;;;0.98;;
53714;SDS011;39608;55.630;37.864;2023-11-22T08:19:22;0.95;;;0.88;;
53714;SDS011;39608;55.630;37.864;2023-11-22T08:24:25;4.90;;;1.17;;
53714;SDS011;39608;55.630;37.864;2023-11-22T08:29:28;3.38;;;1.52;;
53714;SDS011;39608;55.630;37.864;2023-11-22T08:34:30;1.05;;;0.82;;
53714;SDS011;39608;55.630;37.864;2023-11-22T08:39:33;1.38;;;0.93;;
53714;SDS011;39608;55.630;37.864;2023-11-22T08:44:37;3.92;;;1.52;;
53714;SDS011;39608;55.630;37.864;2023-11-22T08:49:39;2.22;;;1.08;;
53714;SDS011;39608;55.630;37.864;2023-11-22T08:54:42;2.38;;;1.00;;
53714;SDS011;39608;55.630;37.864;2023-11-22T08:59:46;6.85;;;1.20;;
53714;SDS011;39608;55.630;37.864;2023-11-22T09:04:49;6.20;;;1.90;;
53714;SDS011;39608;55.630;37.864;2023-11-22T09:09:50;6.15;;;1.77;;
53714;SDS011;39608;55.630;37.864;2023-11-22T09:14:54;1.23;;;1.10;;
53714;SDS011;39608;55.630;37.864;2023-11-22T09:19:58;4.72;;;1.92;;
53714;SDS011;39608;55.630;37.864;2023-11-22T09:25:03;6.10;;;2.15;;
53714;SDS011;39608;55.630;37.864;2023-11-22T09:35:33;6.80;;;1.67;;
53714;SDS011;39608;55.630;37.864;2023-11-22T09:40:36;1.40;;;1.10;;
53714;SDS011;39608;55.630;37.864;2023-11-22T09:45:43;9.65;;;1.88;;
53714;SDS011;39608;55.630;37.864;2023-11-22T09:50:48;3.13;;;1.80;;
53714;SDS011;39608;55.630;37.864;2023-11-22T09:55:56;4.38;;;1.63;;
53714;SDS011;39608;55.630;37.864;2023-11-22T10:01:03;4.80;;;1.95;;
53714;SDS011;39608;55.630;37.864;2023-11-22T10:06:08;2.80;;;1.35;;
53714;SDS011;39608;55.630;37.864;2023-11-22T10:11:10;5.05;;;1.83;;
53714;SDS011;39608;55.630;37.864;2023-11-22T10:16:15;10.13;;;1.33;;
53714;SDS011;39608;55.630;37.864;2023-11-22T10:21:20;7.93;;;2.40;;
53714;SDS011;39608;55.630;37.864;2023-11-22T10:26:24;2.65;;;1.30;;
53714;SDS011;39608;55.630;37.864;2023-11-22T10:31:29;6.43;;;2.38;;
53714;SDS011;39608;55.630;37.864;2023-11-22T10:36:32;4.78;;;2.22;;
53714;SDS011;39608;55.630;37.864;2023-11-22T10:41:34;6.75;;;2.15;;
53714;SDS011;39608;55.630;37.864;2023-11-22T10:46:41;5.70;;;2.05;;
53714;SDS011;39608;55.630;37.864;2023-11-22T10:51:43;1.42;;;1.25;;
53714;SDS011;39608;55.630;37.864;2023-11-22T10:56:54;4.60;;;2.10;;
53714;SDS011;39608;55.630;37.864;2023-11-22T11:02:00;2.70;;;1.52;;
53714;SDS011;39608;55.630;37.864;2023-11-22T11:07:03;3.50;;;1.92;;
53714;SDS011;39608;55.630;37.864;2023-11-22T11:12:15;4.38;;;1.98;;
53714;SDS011;39608;55.630;37.864;2023-11-22T11:17:18;3.35;;;1.60;;
53714;SDS011;39608;55.630;37.864;2023-11-22T11:22:22;2.45;;;1.10;;
53714;SDS011;39608;55.630;37.864;2023-11-22T11:27:30;4.13;;;2.20;;
53714;SDS011;39608;55.630;37.864;2023-11-22T11:32:37;2.67;;;1.63;;
53714;SDS011;39608;55.630;37.864;2023-11-22T11:37:42;4.13;;;2.27;;
53714;SDS011;39608;55.630;37.864;2023-11-22T11:42:48;1.88;;;1.30;;
53714;SDS011;39608;55.630;37.864;2023-11-22T11:47:52;4.25;;;2.20;;
53714;SDS011;39608;55.630;37.864;2023-11-22T11:52:54;10.82;;;3.70;;
53714;SDS011;39608;55.630;37.864;2023-11-22T11:57:56;10.30;;;2.78;;
53714;SDS011;39608;55.630;37.864;2023-11-22T12:03:00;6.05;;;2.70;;
53714;SDS011;39608;55.630;37.864;2023-11-22T12:08:02;4.43;;;2.20;;
53714;SDS011;39608;55.630;37.864;2023-11-22T12:13:04;6.85;;;2.33;;
53714;SDS011;39608;55.630;37.864;2023-11-22T12:18:09;2.25;;;1.20;;
53714;SDS011;39608;55.630;37.864;2023-11-22T12:23:12;4.15;;;1.90;;
53714;SDS011;39608;55.630;37.864;2023-11-22T12:28:14;5.97;;;2.00;;
53714;SDS011;39608;55.630;37.864;2023-11-22T12:33:19;1.73;;;1.13;;
53714;SDS011;39608;55.630;37.864;2023-11-22T12:38:21;1.60;;;1.38;;
53714;SDS011;39608;55.630;37.864;2023-11-22T12:43:26;1.25;;;1.08;;
53714;SDS011;39608;55.630;37.864;2023-11-22T12:48:30;3.22;;;2.05;;
53714;SDS011;39608;55.630;37.864;2023-11-22T12:53:33;4.90;;;1.40;;
53714;SDS011;39608;55.630;37.864;2023-11-22T12:58:36;8.73;;;1.77;;
53714;SDS011;39608;55.630;37.864;2023-11-22T13:03:40;3.58;;;1.92;;
53714;SDS011;39608;55.630;37.864;2023-11-22T13:08:42;6.57;;;1.75;;
53714;SDS011;39608;55.630;37.864;2023-11-22T13:13:44;1.20;;;1.15;;
53714;SDS011;39608;55.630;37.864;2023-11-22T13:18:48;3.72;;;1.90;;
53714;SDS011;39608;55.630;37.864;2023-11-22T13:23:50;2.35;;;1.40;;
53714;SDS011;39608;55.630;37.864;2023-11-22T13:28:52;11.35;;;2.53;;
53714;SDS011;39608;55.630;37.864;2023-11-22T13:34:00;2.55;;;1.95;;
53714;SDS011;39608;55.630;37.864;2023-11-22T13:39:02;2.30;;;1.10;;
53714;SDS011;39608;55.630;37.864;2023-11-22T13:44:05;1.13;;;0.80;;
53714;SDS011;39608;55.630;37.864;2023-11-22T13:49:09;4.10;;;1.55;;
53714;SDS011;39608;55.630;37.864;2023-11-22T13:54:11;1.73;;;1.00;;
53714;SDS011;39608;55.630;37.864;2023-11-22T13:59:14;2.35;;;1.10;;
53714;SDS011;39608;55.630;37.864;2023-11-22T14:04:18;0.25;;;0.25;;
53714;SDS011;39608;55.630;37.864;2023-11-22T14:09:20;16.70;;;1.10;;
53714;SDS011;39608;55.630;37.864;2023-11-22T14:14:22;1.77;;;1.20;;
53714;SDS011;39608;55.630;37.864;2023-11-22T14:19:26;3.10;;;1.45;;
53714;SDS011;39608;55.630;37.864;2023-11-22T14:24:28;2.70;;;1.40;;
53714;SDS011;39608;55.630;37.864;2023-11-22T14:29:30;2.50;;;1.30;;
53714;SDS011;39608;55.630;37.864;2023-11-22T14:34:38;2.83;;;1.70;;
53714;SDS011;39608;55.630;37.864;2023-11-22T14:39:40;2.20;;;1.30;;
53714;SDS011;39608;55.630;37.864;2023-11-22T14:44:43;3.60;;;1.50;;
53714;SDS011;39608;55.630;37.864;2023-11-22T14:49:46;1.73;;;1.20;;
53714;SDS011;39608;55.630;37.864;2023-11-22T14:54:49;1.50;;;1.05;;
53714;SDS011;39608;55.630;37.864;2023-11-22T14:59:52;8.70;;;1.60;;
53714;SDS011;39608;55.630;37.864;2023-11-22T15:04:58;2.17;;;1.67;;
53714;SDS011;39608;55.630;37.864;2023-11-22T15:10:02;5.38;;;2.25;;
53714;SDS011;39608;55.630;37.864;2023-11-22T15:15:04;1.38;;;1.05;;
53714;SDS011;39608;55.630;37.864;2023-11-22T15:20:10;3.25;;;1.45;;
53714;SDS011;39608;55.630;37.864;2023-11-22T15:25:15;5.38;;;2.25;;
53714;SDS011;39608;55.630;37.864;2023-11-22T15:30:26;4.95;;;2.53;;
53714;SDS011;39608;55.630;37.864;2023-11-22T15:35:30;6.43;;;2.85;;
53714;SDS011;39608;55.630;37.864;2023-11-22T15:40:32;7.75;;;3.00;;
53714;SDS011;39608;55.630;37.864;2023-11-22T15:45:34;5.28;;;2.80;;
53714;SDS011;39608;55.630;37.864;2023-11-22T15:50:39;2.17;;;1.48;;
53714;SDS011;39608;55.630;37.864;2023-11-22T15:55:41;3.53;;;2.03;;
53714;SDS011;39608;55.630;37.864;2023-11-22T16:00:43;2.17;;;1.33;;
53714;SDS011;39608;55.630;37.864;2023-11-22T16:05:46;3.45;;;1.17;;
53714;SDS011;39608;55.630;37.864;2023-11-22T16:10:48;3.08;;;1.92;;
53714;SDS011;39608;55.630;37.864;2023-11-22T16:15:52;5.78;;;2.45;;
53714;SDS011;39608;55.630;37.864;2023-11-22T16:20:58;2.92;;;1.65;;
53714;SDS011;39608;55.630;37.864;2023-11-22T16:26:01;9.35;;;2.58;;
53714;SDS011;39608;55.630;37.864;2023-11-22T16:31:05;9.20;;;3.50;;
53714;SDS011;39608;55.630;37.864;2023-11-22T16:36:12;2.22;;;1.70;;
53714;SDS011;39608;55.630;37.864;2023-11-22T16:41:14;3.33;;;1.92;;
53714;SDS011;39608;55.630;37.864;2023-11-22T16:46:16;5.15;;;2.40;;
53714;SDS011;39608;55.630;37.864;2023-11-22T16:51:21;6.05;;;2.50;;
53714;SDS011;39608;55.630;37.864;2023-11-22T16:56:26;5.95;;;2.60;;
53714;SDS011;39608;55.630;37.864;2023-11-22T17:01:32;9.27;;;3.60;;
53714;SDS011;39608;55.630;37.864;2023-11-22T17:06:35;4.93;;;3.10;;
53714;SDS011;39608;55.630;37.864;2023-11-22T17:11:37;5.10;;;2.28;;
53714;SDS011;39608;55.630;37.864;2023-11-22T17:16:41;5.05;;;2.42;;
53714;SDS011;39608;55.630;37.864;2023-11-22T17:21:44;3.10;;;1.35;;
53714;SDS011;39608;55.630;37.864;2023-11-22T17:26:46;10.38;;;2.97;;
53714;SDS011;39608;55.630;37.864;2023-11-22T17:31:50;15.27;;;3.15;;
53714;SDS011;39608;55.630;37.864;2023-11-22T17:36:53;5.20;;;3.00;;
53714;SDS011;39608;55.630;37.864;2023-11-22T17:41:55;6.53;;;3.08;;
53714;SDS011;39608;55.630;37.864;2023-11-22T17:46:58;8.80;;;3.55;;
53714;SDS011;39608;55.630;37.864;2023-11-22T17:52:02;6.47;;;3.00;;
53714;SDS011;39608;55.630;37.864;2023-11-22T17:57:05;2.75;;;2.15;;
53714;SDS011;39608;55.630;37.864;2023-11-22T18:02:10;10.65;;;3.25;;
53714;SDS011;39608;55.630;37.864;2023-11-22T18:07:15;11.85;;;2.92;;
53714;SDS011;39608;55.630;37.864;2023-11-22T18:12:17;24.17;;;3.50;;
53714;SDS011;39608;55.630;37.864;2023-11-22T18:17:20;6.07;;;3.25;;
53714;SDS011;39608;55.630;37.864;2023-11-22T18:22:25;10.25;;;2.90;;
53714;SDS011;39608;55.630;37.864;2023-11-22T18:27:27;6.15;;;3.05;;
53714;SDS011;39608;55.630;37.864;2023-11-22T18:32:31;5.70;;;2.50;;
53714;SDS011;39608;55.630;37.864;2023-11-22T18:37:34;7.25;;;3.15;;
53714;SDS011;39608;55.630;37.864;2023-11-22T18:42:36;14.65;;;3.28;;
53714;SDS011;39608;55.630;37.864;2023-11-22T18:47:39;10.68;;;3.83;;
53714;SDS011;39608;55.630;37.864;2023-11-22T18:52:44;8.77;;;4.60;;
53714;SDS011;39608;55.630;37.864;2023-11-22T18:57:46;6.63;;;3.28;;
53714;SDS011;39608;55.630;37.864;2023-11-22T19:02:48;7.38;;;3.10;;
53714;SDS011;39608;55.630;37.864;2023-11-22T19:07:52;7.63;;;2.83;;
53714;SDS011;39608;55.630;37.864;2023-11-22T19:12:55;4.38;;;1.85;;
53714;SDS011;39608;55.630;37.864;2023-11-22T19:17:57;9.68;;;3.85;;
53714;SDS011;39608;55.630;37.864;2023-11-22T19:23:00;10.38;;;3.75;;
53714;SDS011;39608;55.630;37.864;2023-11-22T19:28:04;9.77;;;3.97;;
53714;SDS011;39608;55.630;37.864;2023-11-22T19:33:08;16.25;;;4.75;;
53714;SDS011;39608;55.630;37.864;2023-11-22T19:38:11;8.38;;;3.67;;
53714;SDS011;39608;55.630;37.864;2023-11-22T19:43:14;7.50;;;3.80;;
53714;SDS011;39608;55.630;37.864;2023-11-22T19:48:16;7.85;;;3.50;;
53714;SDS011;39608;55.630;37.864;2023-11-22T19:53:20;4.10;;;2.28;;
53714;SDS011;39608;55.630;37.864;2023-11-22T19:58:23;5.38;;;3.00;;
53714;SDS011;39608;55.630;37.864;2023-11-22T20:03:25;6.88;;;1.95;;
53714;SDS011;39608;55.630;37.864;2023-11-22T20:08:29;0.77;;;0.70;;
53714;SDS011;39608;55.630;37.864;2023-11-22T20:13:32;6.05;;;1.73;;
53714;SDS011;39608;55.630;37.864;2023-11-22T20:18:36;2.95;;;1.60;;
53714;SDS011;39608;55.630;37.864;2023-11-22T20:23:39;2.17;;;0.90;;
53714;SDS011;39608;55.630;37.864;2023-11-22T20:28:42;13.65;;;1.58;;
53714;SDS011;39608;55.630;37.864;2023-11-22T20:33:44;0.75;;;0.70;;
53714;SDS011;39608;55.630;37.864;2023-11-22T20:38:48;1.13;;;0.90;;
53714;SDS011;39608;55.630;37.864;2023-11-22T20:43:50;2.72;;;1.55;;
53714;SDS011;39608;55.630;37.864;2023-11-22T20:48:52;2.10;;;1.42;;
53714;SDS011;39608;55.630;37.864;2023-11-22T20:53:58;0.22;;;0.22;;
53714;SDS011;39608;55.630;37.864;2023-11-22T20:59:00;0.85;;;0.73;;
53714;SDS011;39608;55.630;37.864;2023-11-22T21:04:04;0.77;;;0.70;;
53714;SDS011;39608;55.630;37.864;2023-11-22T21:09:08;1.52;;;0.93;;
53714;SDS011;39608;55.630;37.864;2023-11-22T21:14:11;0.82;;;0.82;;
53714;SDS011;39608;55.630;37.864;2023-11-22T21:19:14;1.30;;;0.88;;
53714;SDS011;39608;55.630;37.864;2023-11-22T21:24:17;0.80;;;0.80;;
53714;SDS011;39608;55.630;37.864;2023-11-22T21:29:19;0.77;;;0.77;;
53714;SDS011;39608;55.630;37.864;2023-11-22T21:34:22;2.30;;;0.85;;
53714;SDS011;39608;55.630;37.864;2023-11-22T21:39:29;0.90;;;0.77;;
53714;SDS011;39608;55.630;37.864;2023-11-22T21:44:31;2.13;;;0.98;;
53714;SDS011;39608;55.630;37.864;2023-11-22T21:49:38;1.73;;;1.20;;
53714;SDS011;39608;55.630;37.864;2023-11-22T21:54:42;0.90;;;0.80;;
53714;SDS011;39608;55.630;37.864;2023-11-22T21:59:44;0.30;;;0.30;;
53714;SDS011;39608;55.630;37.864;2023-11-22T22:04:46;0.75;;;0.75;;
53714;SDS011;39608;55.630;37.864;2023-11-22T22:09:50;0.30;;;0.30;;
53714;SDS011;39608;55.630;37.864;2023-11-22T22:14:57;0.50;;;0.50;;
53714;SDS011;39608;55.630;37.864;2023-11-22T22:19:59;0.52;;;0.52;;
53714;SDS011;39608;55.630;37.864;2023-11-22T22:25:04;0.63;;;0.63;;
53714;SDS011;39608;55.630;37.864;2023-11-22T22:30:08;0.88;;;0.75;;
53714;SDS011;39608;55.630;37.864;2023-11-22T22:35:14;0.63;;;0.43;;
53714;SDS011;39608;55.630;37.864;2023-11-22T22:40:17;0.63;;;0.55;;
53714;SDS011;39608;55.630;37.864;2023-11-22T22:45:20;0.63;;;0.60;;
53714;SDS011;39608;55.630;37.864;2023-11-22T22:50:22;2.55;;;0.70;;
53714;SDS011;39608;55.630;37.864;2023-11-22T22:55:27;0.98;;;0.73;;
53714;SDS011;39608;55.630;37.864;2023-11-22T23:00:29;2.50;;;0.40;;
53714;SDS011;39608;55.630;37.864;2023-11-22T23:05:38;0.68;;;0.60;;
53714;SDS011;39608;55.630;37.864;2023-11-22T23:10:44;0.45;;;0.45;;
53714;SDS011;39608;55.630;37.864;2023-11-22T23:15:46;0.57;;;0.57;;
53714;SDS011;39608;55.630;37.864;2023-11-22T23:20:49;1.55;;;0.88;;
53714;SDS011;39608;55.630;37.864;2023-11-22T23:25:53;2.10;;;1.33;;
53714;SDS011;39608;55.630;37.864;2023-11-22T23:30:55;1.85;;;0.98;;
53714;SDS011;39608;55.630;37.864;2023-11-22T23:36:00;1.30;;;0.85;;
53714;SDS011;39608;55.630;37.864;2023-11-22T23:41:06;0.85;;;0.70;;
53714;SDS011;39608;55.630;37.864;2023-11-22T23:46:12;0.98;;;0.68;;
53714;SDS011;39608;55.630;37.864;2023-11-22T23:51:17;0.10;;;0.10;;
53714;SDS011;39608;55.630;37.864;2023-11-22T23:56:21;1.40;;;0.70;;
